createdAt,value
2016-05-01T00:00:25.325Z,0
2016-05-01T00:01:25.265Z,0
2016-05-01T00:02:25.267Z,0
2016-05-01T00:03:25.177Z,0
2016-05-01T00:04:25.147Z,0
2016-05-01T00:05:24.964Z,0
2016-05-01T00:06:24.732Z,0
2016-05-01T00:07:24.983Z,0
2016-05-01T00:08:24.941Z,0
2016-05-01T00:09:24.880Z,0
2016-05-01T00:10:24.836Z,0
2016-05-01T00:11:24.683Z,0
2016-05-01T00:12:24.591Z,0
2016-05-01T00:13:24.797Z,0
2016-05-01T00:14:24.957Z,0
2016-05-01T00:15:27.615Z,0
2016-05-01T00:16:24.415Z,0
2016-05-01T00:17:24.496Z,0
2016-05-01T00:18:24.467Z,0
2016-05-01T00:19:24.423Z,0
2016-05-01T00:20:24.691Z,0
2016-05-01T00:21:24.318Z,0
2016-05-01T00:22:24.306Z,0
2016-05-01T00:23:24.230Z,0
2016-05-01T00:24:24.014Z,0
2016-05-01T00:25:24.111Z,0
2016-05-01T00:26:24.082Z,0
2016-05-01T00:27:27.022Z,0
2016-05-01T00:28:23.994Z,0
2016-05-01T00:29:23.918Z,0
2016-05-01T00:30:23.953Z,0
2016-05-01T00:31:23.831Z,0
2016-05-01T00:32:23.770Z,0
2016-05-01T00:33:23.601Z,0
2016-05-01T00:34:23.698Z,0
2016-05-01T00:35:23.544Z,0
2016-05-01T00:36:23.578Z,0
2016-05-01T00:37:23.549Z,0
2016-05-01T00:38:23.474Z,0
2016-05-01T00:39:23.445Z,0
2016-05-01T00:40:23.402Z,0
2016-05-01T00:41:23.200Z,0
2016-05-01T00:42:23.297Z,0
2016-05-01T00:43:23.238Z,0
2016-05-01T00:44:23.037Z,0
2016-05-01T00:45:22.993Z,0
2016-05-01T00:46:22.948Z,0
2016-05-01T00:47:23.139Z,0
2016-05-01T00:48:23.016Z,0
2016-05-01T00:49:22.800Z,0
2016-05-01T00:50:23.334Z,0
2016-05-01T00:51:22.852Z,0
2016-05-01T00:52:22.793Z,0
2016-05-01T00:53:22.765Z,0
2016-05-01T00:54:22.595Z,0
2016-05-01T00:55:22.660Z,0
2016-05-01T00:56:22.632Z,0
2016-05-01T00:57:22.416Z,0
2016-05-01T00:58:22.918Z,0
2016-05-01T00:59:25.468Z,0
2016-05-01T01:00:22.423Z,0
2016-05-01T01:01:25.379Z,0
2016-05-01T01:02:22.179Z,0
2016-05-01T01:03:22.478Z,0
2016-05-01T01:04:22.231Z,0
2016-05-01T01:05:24.889Z,0
2016-05-01T01:06:21.986Z,0
2016-05-01T01:07:22.083Z,0
2016-05-01T01:08:22.039Z,0
2016-05-01T01:09:22.197Z,0
2016-05-01T01:10:21.950Z,0
2016-05-01T01:11:21.891Z,0
2016-05-01T01:12:21.531Z,0
2016-05-01T01:13:21.866Z,0
2016-05-01T01:14:21.739Z,0
2016-05-01T01:15:21.695Z,0
2016-05-01T01:16:21.492Z,0
2016-05-01T01:17:21.619Z,0
2016-05-01T01:18:24.578Z,0
2016-05-01T01:19:21.406Z,0
2016-05-01T01:20:21.425Z,0
2016-05-01T01:21:21.411Z,0
2016-05-01T01:22:21.367Z,0
2016-05-01T01:23:21.151Z,0
2016-05-01T01:24:21.278Z,0
2016-05-01T01:25:21.203Z,0
2016-05-01T01:26:21.018Z,0
2016-05-01T01:27:21.130Z,0
2016-05-01T01:28:21.477Z,0
2016-05-01T01:29:21.073Z,0
2016-05-01T01:30:20.827Z,0
2016-05-01T01:31:20.922Z,0
2016-05-01T01:32:23.755Z,0
2016-05-01T01:33:23.680Z,0
2016-05-01T01:34:20.868Z,0
2016-05-01T01:35:22.058Z,0
2016-05-01T01:36:20.530Z,0
2016-05-01T01:37:20.486Z,0
2016-05-01T01:38:20.425Z,0
2016-05-01T01:39:20.538Z,0
2016-05-01T01:40:20.353Z,0
2016-05-01T01:41:20.449Z,0
2016-05-01T01:42:20.405Z,0
2016-05-01T01:43:20.329Z,0
2016-05-01T01:44:20.285Z,0
2016-05-01T01:45:20.303Z,0
2016-05-01T01:46:23.387Z,0
2016-05-01T01:47:20.231Z,0
2016-05-01T01:48:20.156Z,0
2016-05-01T01:49:19.892Z,0
2016-05-01T01:50:19.848Z,0
2016-05-01T01:51:19.961Z,0
2016-05-01T01:52:19.900Z,0
2016-05-01T01:53:19.700Z,0
2016-05-01T01:54:19.827Z,0
2016-05-01T01:55:19.612Z,0
2016-05-01T01:56:19.725Z,0
2016-05-01T01:57:19.524Z,0
2016-05-01T01:58:19.619Z,0
2016-05-01T01:59:19.263Z,0
2016-05-01T02:00:19.532Z,0
2016-05-01T02:01:19.331Z,0
2016-05-01T02:02:19.115Z,0
2016-05-01T02:03:19.227Z,0
2016-05-01T02:04:22.214Z,0
2016-05-01T02:05:19.123Z,0
2016-05-01T02:06:19.079Z,0
2016-05-01T02:07:19.018Z,0
2016-05-01T02:08:18.974Z,0
2016-05-01T02:09:18.962Z,0
2016-05-01T02:10:22.090Z,0
2016-05-01T02:11:18.842Z,0
2016-05-01T02:12:18.971Z,0
2016-05-01T02:13:18.894Z,0
2016-05-01T02:14:18.834Z,0
2016-05-01T02:15:18.807Z,0
2016-05-01T02:16:18.762Z,0
2016-05-01T02:17:18.562Z,0
2016-05-01T02:18:18.643Z,0
2016-05-01T02:19:18.598Z,0
2016-05-01T02:20:18.820Z,0
2016-05-01T02:21:18.510Z,0
2016-05-01T02:22:18.481Z,0
2016-05-01T02:23:18.437Z,0
2016-05-01T02:24:18.362Z,0
2016-05-01T02:25:18.161Z,0
2016-05-01T02:26:18.273Z,0
2016-05-01T02:27:18.088Z,0
2016-05-01T02:28:18.185Z,0
2016-05-01T02:29:18.313Z,0
2016-05-01T02:30:18.065Z,0
2016-05-01T02:31:18.021Z,0
2016-05-01T02:32:20.993Z,0
2016-05-01T02:33:18.121Z,0
2016-05-01T02:34:17.716Z,0
2016-05-01T02:35:17.657Z,0
2016-05-01T02:36:17.785Z,0
2016-05-01T02:37:17.584Z,0
2016-05-01T02:38:17.712Z,0
2016-05-01T02:39:17.465Z,0
2016-05-01T02:40:17.593Z,0
2016-05-01T02:41:17.548Z,0
2016-05-01T02:42:20.535Z,0
2016-05-01T02:43:17.288Z,0
2016-05-01T02:44:17.384Z,0
2016-05-01T02:45:17.340Z,0
2016-05-01T02:46:17.311Z,0
2016-05-01T02:47:17.126Z,0
2016-05-01T02:48:17.051Z,0
2016-05-01T02:49:17.194Z,0
2016-05-01T02:50:17.056Z,0
2016-05-01T02:51:17.090Z,0
2016-05-01T02:52:17.015Z,0
2016-05-01T02:53:16.987Z,0
2016-05-01T02:54:16.927Z,0
2016-05-01T02:55:16.851Z,0
2016-05-01T02:56:16.338Z,0
2016-05-01T02:57:16.326Z,0
2016-05-01T02:58:16.578Z,0
2016-05-01T02:59:16.706Z,0
2016-05-01T03:00:16.614Z,0
2016-05-01T03:01:16.602Z,0
2016-05-01T03:02:16.527Z,0
2016-05-01T03:03:16.451Z,0
2016-05-01T03:04:19.282Z,0
2016-05-01T03:05:16.377Z,0
2016-05-01T03:06:16.177Z,0
2016-05-01T03:07:16.274Z,0
2016-05-01T03:08:16.229Z,0
2016-05-01T03:09:16.170Z,0
2016-05-01T03:10:15.985Z,0
2016-05-01T03:11:16.082Z,0
2016-05-01T03:12:15.882Z,0
2016-05-01T03:13:15.994Z,0
2016-05-01T03:14:18.964Z,0
2016-05-01T03:15:15.952Z,0
2016-05-01T03:16:15.736Z,0
2016-05-01T03:17:15.785Z,0
2016-05-01T03:18:15.601Z,0
2016-05-01T03:19:15.697Z,0
2016-05-01T03:20:16.528Z,0
2016-05-01T03:21:15.453Z,0
2016-05-01T03:22:15.923Z,0
2016-05-01T03:23:15.505Z,0
2016-05-01T03:24:15.461Z,0
2016-05-01T03:25:15.260Z,0
2016-05-01T03:26:15.575Z,0
2016-05-01T03:27:15.156Z,0
2016-05-01T03:28:15.253Z,0
2016-05-01T03:29:15.192Z,0
2016-05-01T03:30:15.195Z,0
2016-05-01T03:31:15.198Z,0
2016-05-01T03:32:15.264Z,0
2016-05-01T03:33:15.063Z,0
2016-05-01T03:34:14.972Z,0
2016-05-01T03:35:15.600Z,0
2016-05-01T03:36:14.852Z,0
2016-05-01T03:37:14.824Z,0
2016-05-01T03:38:14.624Z,0
2016-05-01T03:39:14.719Z,0
2016-05-01T03:40:17.691Z,0
2016-05-01T03:41:14.819Z,0
2016-05-01T03:42:14.587Z,0
2016-05-01T03:43:17.215Z,0
2016-05-01T03:44:14.515Z,0
2016-05-01T03:45:14.439Z,0
2016-05-01T03:46:14.223Z,0
2016-05-01T03:47:14.179Z,0
2016-05-01T03:48:17.150Z,0
2016-05-01T03:49:14.075Z,0
2016-05-01T03:50:14.202Z,0
2016-05-01T03:51:14.142Z,0
2016-05-01T03:52:14.395Z,0
2016-05-01T03:53:13.898Z,0
2016-05-01T03:54:13.854Z,0
2016-05-01T03:55:13.810Z,0
2016-05-01T03:56:13.937Z,0
2016-05-01T03:57:16.878Z,0
2016-05-01T03:58:17.021Z,0
2016-05-01T03:59:13.664Z,0
2016-05-01T04:00:13.714Z,0
2016-05-01T04:01:13.497Z,0
2016-05-01T04:02:16.610Z,0
2016-05-01T04:03:13.253Z,0
2016-05-01T04:04:13.708Z,0
2016-05-01T04:05:13.477Z,0
2016-05-01T04:06:13.276Z,0
2016-05-01T04:07:13.076Z,0
2016-05-01T04:08:13.344Z,0
2016-05-01T04:09:13.269Z,0
2016-05-01T04:10:13.240Z,0
2016-05-01T04:11:13.024Z,0
2016-05-01T04:12:12.887Z,0
2016-05-01T04:13:13.093Z,0
2016-05-01T04:14:16.096Z,0
2016-05-01T04:15:12.988Z,0
2016-05-01T04:16:12.913Z,0
2016-05-01T04:17:13.071Z,0
2016-05-01T04:18:12.840Z,0
2016-05-01T04:19:15.781Z,0
2016-05-01T04:20:15.908Z,0
2016-05-01T04:21:12.395Z,0
2016-05-01T04:22:12.648Z,0
2016-05-01T04:23:12.603Z,0
2016-05-01T04:24:12.622Z,0
2016-05-01T04:25:12.358Z,0
2016-05-01T04:26:15.299Z,0
2016-05-01T04:27:15.411Z,0
2016-05-01T04:28:12.211Z,0
2016-05-01T04:29:12.151Z,0
2016-05-01T04:30:12.248Z,0
2016-05-01T04:31:11.891Z,0
2016-05-01T04:32:12.019Z,0
2016-05-01T04:33:12.240Z,0
2016-05-01T04:34:12.055Z,0
2016-05-01T04:35:12.667Z,0
2016-05-01T04:36:14.827Z,0
2016-05-01T04:37:12.438Z,0
2016-05-01T04:38:11.707Z,0
2016-05-01T04:39:11.834Z,0
2016-05-01T04:40:11.774Z,0
2016-05-01T04:41:11.574Z,0
2016-05-01T04:42:11.670Z,0
2016-05-01T04:43:11.641Z,0
2016-05-01T04:44:11.426Z,0
2016-05-01T04:45:14.521Z,0
2016-05-01T04:46:11.509Z,0
2016-05-01T04:47:11.434Z,0
2016-05-01T04:48:11.359Z,0
2016-05-01T04:49:11.330Z,0
2016-05-01T04:50:11.240Z,0
2016-05-01T04:51:11.241Z,0
2016-05-01T04:52:11.198Z,0
2016-05-01T04:53:11.137Z,0
2016-05-01T04:54:10.984Z,0
2016-05-01T04:55:10.878Z,0
2016-05-01T04:56:14.098Z,0
2016-05-01T04:57:10.945Z,0
2016-05-01T04:58:13.916Z,0
2016-05-01T04:59:13.888Z,0
2016-05-01T05:00:10.797Z,0
2016-05-01T05:01:10.596Z,0
2016-05-01T05:02:10.755Z,0
2016-05-01T05:03:10.649Z,0
2016-05-01T05:04:10.605Z,0
2016-05-01T05:05:10.592Z,0
2016-05-01T05:06:10.485Z,0
2016-05-01T05:07:10.347Z,0
2016-05-01T05:08:10.413Z,0
2016-05-01T05:09:10.384Z,0
2016-05-01T05:10:10.043Z,0
2016-05-01T05:11:10.327Z,0
2016-05-01T05:12:10.063Z,0
2016-05-01T05:13:10.222Z,0
2016-05-01T05:14:10.319Z,0
2016-05-01T05:15:10.087Z,0
2016-05-01T05:16:12.887Z,0
2016-05-01T05:17:09.827Z,0
2016-05-01T05:18:09.954Z,0
2016-05-01T05:19:09.738Z,0
2016-05-01T05:20:09.740Z,0
2016-05-01T05:21:10.009Z,0
2016-05-01T05:22:09.778Z,0
2016-05-01T05:23:09.390Z,0
2016-05-01T05:24:09.643Z,0
2016-05-01T05:25:12.459Z,0
2016-05-01T05:26:09.538Z,0
2016-05-01T05:27:09.510Z,0
2016-05-01T05:28:09.310Z,0
2016-05-01T05:29:09.406Z,0
2016-05-01T05:30:09.347Z,0
2016-05-01T05:31:09.161Z,0
2016-05-01T05:32:09.102Z,0
2016-05-01T05:33:12.230Z,0
2016-05-01T05:34:09.185Z,0
2016-05-01T05:35:09.031Z,0
2016-05-01T05:36:08.909Z,0
2016-05-01T05:37:09.005Z,0
2016-05-01T05:38:08.978Z,0
2016-05-01T05:39:08.933Z,0
2016-05-01T05:40:08.716Z,0
2016-05-01T05:41:08.657Z,0
2016-05-01T05:42:08.754Z,0
2016-05-01T05:43:08.787Z,0
2016-05-01T05:44:08.510Z,0
2016-05-01T05:45:08.683Z,0
2016-05-01T05:46:08.561Z,0
2016-05-01T05:47:08.643Z,0
2016-05-01T05:48:08.473Z,0
2016-05-01T05:49:08.413Z,0
2016-05-01T05:50:10.447Z,0
2016-05-01T05:51:08.325Z,0
2016-05-01T05:52:08.312Z,0
2016-05-01T05:53:11.252Z,0
2016-05-01T05:54:08.239Z,0
2016-05-01T05:55:07.992Z,0
2016-05-01T05:56:07.932Z,0
2016-05-01T05:57:08.044Z,0
2016-05-01T05:58:07.968Z,0
2016-05-01T05:59:08.158Z,0
2016-05-01T06:00:07.739Z,0
2016-05-01T06:01:10.851Z,0
2016-05-01T06:02:07.650Z,0
2016-05-01T06:03:07.606Z,0
2016-05-01T06:04:07.688Z,0
2016-05-01T06:05:07.644Z,0
2016-05-01T06:06:07.444Z,0
2016-05-01T06:07:07.258Z,0
2016-05-01T06:08:07.510Z,0
2016-05-01T06:09:07.452Z,0
2016-05-01T06:10:07.477Z,0
2016-05-01T06:11:07.518Z,0
2016-05-01T06:12:07.384Z,0
2016-05-01T06:13:07.310Z,0
2016-05-01T06:14:07.200Z,0
2016-05-01T06:15:07.219Z,0
2016-05-01T06:16:07.111Z,0
2016-05-01T06:17:07.161Z,0
2016-05-01T06:18:07.007Z,0
2016-05-01T06:19:06.963Z,0
2016-05-01T06:20:06.903Z,0
2016-05-01T06:21:06.875Z,0
2016-05-01T06:22:06.721Z,0
2016-05-01T06:23:06.786Z,0
2016-05-01T06:24:06.727Z,0
2016-05-01T06:25:09.746Z,0
2016-05-01T06:26:06.623Z,0
2016-05-01T06:27:06.579Z,0
2016-05-01T06:28:06.393Z,0
2016-05-01T06:29:06.334Z,0
2016-05-01T06:30:06.430Z,0
2016-05-01T06:31:06.417Z,0
2016-05-01T06:32:06.202Z,0
2016-05-01T06:33:06.282Z,0
2016-05-01T06:34:06.159Z,0
2016-05-01T06:35:06.069Z,0
2016-05-01T06:36:06.228Z,0
2016-05-01T06:37:05.965Z,0
2016-05-01T06:38:06.265Z,0
2016-05-01T06:39:06.001Z,0
2016-05-01T06:40:05.957Z,0
2016-05-01T06:41:09.117Z,0
2016-05-01T06:42:05.901Z,0
2016-05-01T06:43:05.731Z,0
2016-05-01T06:44:08.781Z,0
2016-05-01T06:45:05.705Z,0
2016-05-01T06:46:05.536Z,0
2016-05-01T06:47:05.461Z,0
2016-05-01T06:48:05.822Z,0
2016-05-01T06:49:05.403Z,0
2016-05-01T06:50:05.688Z,0
2016-05-01T06:51:08.469Z,0
2016-05-01T06:52:05.294Z,0
2016-05-01T06:53:05.152Z,0
2016-05-01T06:54:05.275Z,0
2016-05-01T06:55:05.430Z,0
2016-05-01T06:56:05.411Z,0
2016-05-01T06:57:05.226Z,0
2016-05-01T06:58:05.353Z,0
2016-05-01T06:59:05.324Z,0
2016-05-01T07:00:05.343Z,0
2016-05-01T07:01:05.244Z,0
2016-05-01T07:02:05.034Z,0
2016-05-01T07:03:05.135Z,0
2016-05-01T07:04:05.113Z,0
2016-05-01T07:05:04.918Z,0
2016-05-01T07:06:04.845Z,0
2016-05-01T07:07:04.974Z,0
2016-05-01T07:08:05.026Z,0
2016-05-01T07:09:04.906Z,0
2016-05-01T07:10:07.848Z,0
2016-05-01T07:11:07.759Z,0
2016-05-01T07:12:04.730Z,0
2016-05-01T07:13:04.532Z,0
2016-05-01T07:14:04.627Z,0
2016-05-01T07:15:04.585Z,0
2016-05-01T07:16:04.541Z,0
2016-05-01T07:17:04.529Z,0
2016-05-01T07:18:04.437Z,0
2016-05-01T07:19:04.441Z,0
2016-05-01T07:20:04.334Z,0
2016-05-01T07:21:04.244Z,0
2016-05-01T07:22:04.106Z,0
2016-05-01T07:23:04.124Z,0
2016-05-01T07:24:04.158Z,0
2016-05-01T07:25:04.176Z,0
2016-05-01T07:26:04.257Z,0
2016-05-01T07:27:03.869Z,0
2016-05-01T07:28:03.825Z,0
2016-05-01T07:29:03.906Z,0
2016-05-01T07:30:03.706Z,0
2016-05-01T07:31:03.676Z,0
2016-05-01T07:32:03.758Z,0
2016-05-01T07:33:06.729Z,0
2016-05-01T07:34:03.685Z,0
2016-05-01T07:35:03.609Z,0
2016-05-01T07:36:03.487Z,0
2016-05-01T07:37:03.505Z,0
2016-05-01T07:38:03.478Z,0
2016-05-01T07:39:03.417Z,0
2016-05-01T07:40:03.404Z,0
2016-05-01T07:41:09.344Z,0
2016-05-01T07:42:06.488Z,0
2016-05-01T07:43:03.241Z,0
2016-05-01T07:44:03.180Z,0
2016-05-01T07:45:02.996Z,0
2016-05-01T07:46:03.092Z,0
2016-05-01T07:47:02.877Z,0
2016-05-01T07:48:03.488Z,0
2016-05-01T07:49:02.944Z,0
2016-05-01T07:50:02.727Z,0
2016-05-01T07:51:02.809Z,0
2016-05-01T07:52:02.640Z,0
2016-05-01T07:53:02.767Z,0
2016-05-01T07:54:02.692Z,0
2016-05-01T07:55:02.507Z,0
2016-05-01T07:56:02.463Z,0
2016-05-01T07:57:02.559Z,0
2016-05-01T07:58:02.515Z,0
2016-05-01T07:59:02.706Z,0
2016-05-01T08:00:02.396Z,0
2016-05-01T08:01:02.367Z,0
2016-05-01T08:02:02.292Z,0
2016-05-01T08:03:02.153Z,0
2016-05-01T08:04:02.062Z,0
2016-05-01T08:05:02.158Z,0
2016-05-01T08:06:02.193Z,0
2016-05-01T08:07:02.070Z,0
2016-05-01T08:08:02.104Z,0
2016-05-01T08:09:01.951Z,0
2016-05-01T08:10:01.939Z,0
2016-05-01T08:11:01.894Z,0
2016-05-01T08:12:02.069Z,0
2016-05-01T08:13:01.789Z,0
2016-05-01T08:14:01.746Z,0
2016-05-01T08:15:01.685Z,0
2016-05-01T08:16:01.469Z,0
2016-05-01T08:17:01.582Z,0
2016-05-01T08:18:01.366Z,0
2016-05-01T08:19:01.477Z,0
2016-05-01T08:20:01.449Z,0
2016-05-01T08:21:03.124Z,0
2016-05-01T08:22:01.330Z,0
2016-05-01T08:23:01.364Z,0
2016-05-01T08:24:01.101Z,0
2016-05-01T08:25:01.212Z,0
2016-05-01T08:26:01.168Z,0
2016-05-01T08:27:00.984Z,0
2016-05-01T08:28:00.783Z,0
2016-05-01T08:29:01.052Z,0
2016-05-01T08:30:00.961Z,0
2016-05-01T08:31:01.026Z,0
2016-05-01T08:32:00.559Z,0
2016-05-01T08:33:04.219Z,0
2016-05-01T08:34:00.753Z,0
2016-05-01T08:35:00.724Z,0
2016-05-01T08:36:02.227Z,0
2016-05-01T08:37:00.620Z,0
2016-05-01T08:38:00.623Z,0
2016-05-01T08:39:00.517Z,0
2016-05-01T08:40:00.487Z,0
2016-05-01T08:41:00.443Z,0
2016-05-01T08:42:00.056Z,0
2016-05-01T08:43:00.183Z,0
2016-05-01T08:44:00.279Z,0
2016-05-01T08:45:00.266Z,0
2016-05-01T08:46:00.019Z,0
2016-05-01T08:46:59.960Z,0
2016-05-01T08:48:00.103Z,0
2016-05-01T08:49:00.043Z,0
2016-05-01T08:49:59.983Z,0
2016-05-01T08:50:59.938Z,0
2016-05-01T08:51:59.894Z,0
2016-05-01T08:52:59.866Z,0
2016-05-01T08:53:59.790Z,0
2016-05-01T08:54:59.607Z,0
2016-05-01T08:55:59.530Z,0
2016-05-01T08:56:59.642Z,0
2016-05-01T08:57:59.583Z,0
2016-05-01T08:58:59.757Z,0
2016-05-01T09:00:02.541Z,0
2016-05-01T09:00:59.654Z,0
2016-05-01T09:01:59.421Z,0
2016-05-01T09:02:59.377Z,0
2016-05-01T09:03:59.302Z,0
2016-05-01T09:05:02.289Z,0
2016-05-01T09:05:59.276Z,0
2016-05-01T09:06:59.170Z,0
2016-05-01T09:07:59.141Z,0
2016-05-01T09:08:58.909Z,0
2016-05-01T09:09:59.239Z,0
2016-05-01T09:10:58.977Z,0
2016-05-01T09:11:58.980Z,0
2016-05-01T09:12:58.701Z,0
2016-05-01T09:13:58.828Z,0
2016-05-01T09:14:58.785Z,0
2016-05-01T09:15:58.756Z,0
2016-05-01T09:16:58.697Z,0
2016-05-01T09:17:58.621Z,0
2016-05-01T09:18:58.577Z,0
2016-05-01T09:19:58.455Z,0
2016-05-01T09:20:58.739Z,0
2016-05-01T09:21:58.460Z,0
2016-05-01T09:22:58.451Z,0
2016-05-01T09:23:58.360Z,0
2016-05-01T09:24:58.285Z,0
2016-05-01T09:25:58.272Z,0
2016-05-01T09:26:58.041Z,0
2016-05-01T09:27:57.996Z,0
2016-05-01T09:28:57.952Z,0
2016-05-01T09:29:58.049Z,0
2016-05-01T09:31:01.067Z,0
2016-05-01T09:31:57.991Z,0
2016-05-01T09:32:58.104Z,0
2016-05-01T09:33:57.700Z,0
2016-05-01T09:34:57.703Z,0
2016-05-01T09:35:57.784Z,0
2016-05-01T09:37:00.584Z,0
2016-05-01T09:37:57.351Z,0
2016-05-01T09:38:57.604Z,0
2016-05-01T09:39:57.419Z,0
2016-05-01T09:40:57.500Z,0
2016-05-01T09:41:57.455Z,0
2016-05-01T09:42:57.428Z,0
2016-05-01T09:43:57.384Z,0
2016-05-01T09:45:00.558Z,0
2016-05-01T09:45:57.139Z,0
2016-05-01T09:46:57.110Z,0
2016-05-01T09:47:57.175Z,0
2016-05-01T09:48:57.147Z,0
2016-05-01T09:49:57.290Z,0
2016-05-01T09:50:58.761Z,0
2016-05-01T09:51:56.843Z,0
2016-05-01T09:52:56.814Z,0
2016-05-01T09:53:56.894Z,0
2016-05-01T09:54:59.709Z,0
2016-05-01T09:55:56.557Z,0
2016-05-01T09:56:56.777Z,0
2016-05-01T09:57:56.701Z,0
2016-05-01T09:58:56.487Z,0
2016-05-01T09:59:56.427Z,0
2016-05-01T10:00:56.538Z,0
2016-05-01T10:01:56.385Z,0
2016-05-01T10:02:56.481Z,0
2016-05-01T10:03:59.406Z,0
2016-05-01T10:04:56.409Z,0
2016-05-01T10:05:57.645Z,0
2016-05-01T10:06:56.134Z,0
2016-05-01T10:07:56.057Z,0
2016-05-01T10:08:56.169Z,0
2016-05-01T10:09:56.359Z,0
2016-05-01T10:10:55.925Z,0
2016-05-01T10:11:55.897Z,0
2016-05-01T10:12:55.992Z,0
2016-05-01T10:13:55.901Z,0
2016-05-01T10:14:55.748Z,0
2016-05-01T10:15:55.908Z,0
2016-05-01T10:16:58.769Z,0
2016-05-01T10:17:55.397Z,0
2016-05-01T10:18:55.696Z,0
2016-05-01T10:19:55.699Z,0
2016-05-01T10:20:55.936Z,0
2016-05-01T10:21:55.549Z,0
2016-05-01T10:22:55.473Z,0
2016-05-01T10:23:55.272Z,0
2016-05-01T10:24:55.072Z,0
2016-05-01T10:25:55.355Z,0
2016-05-01T10:26:55.296Z,0
2016-05-01T10:27:55.251Z,0
2016-05-01T10:28:55.192Z,0
2016-05-01T10:29:55.163Z,0
2016-05-01T10:30:54.948Z,0
2016-05-01T10:31:54.732Z,0
2016-05-01T10:32:58.046Z,0
2016-05-01T10:33:54.831Z,0
2016-05-01T10:34:54.911Z,0
2016-05-01T10:35:55.070Z,0
2016-05-01T10:36:54.822Z,0
2016-05-01T10:37:54.763Z,0
2016-05-01T10:38:54.923Z,0
2016-05-01T10:39:54.737Z,0
2016-05-01T10:40:57.614Z,0
2016-05-01T10:41:54.570Z,0
2016-05-01T10:42:54.619Z,0
2016-05-01T10:43:54.295Z,0
2016-05-01T10:45:00.486Z,0
2016-05-01T10:45:54.394Z,0
2016-05-01T10:46:54.162Z,0
2016-05-01T10:47:54.258Z,0
2016-05-01T10:48:54.074Z,0
2016-05-01T10:49:53.873Z,0
2016-05-01T10:50:53.985Z,0
2016-05-01T10:51:54.083Z,0
2016-05-01T10:52:54.053Z,0
2016-05-01T10:53:53.853Z,0
2016-05-01T10:54:53.918Z,0
2016-05-01T10:55:53.890Z,0
2016-05-01T10:56:53.845Z,0
2016-05-01T10:57:53.473Z,0
2016-05-01T10:58:56.741Z,0
2016-05-01T10:59:53.571Z,0
2016-05-01T11:00:53.621Z,0
2016-05-01T11:01:53.796Z,0
2016-05-01T11:02:53.409Z,0
2016-05-01T11:03:56.239Z,0
2016-05-01T11:04:53.460Z,0
2016-05-01T11:05:53.307Z,0
2016-05-01T11:06:53.356Z,0
2016-05-01T11:07:53.140Z,0
2016-05-01T11:08:56.112Z,0
2016-05-01T11:09:53.208Z,0
2016-05-01T11:10:53.148Z,0
2016-05-01T11:11:53.120Z,0
2016-05-01T11:12:53.045Z,0
2016-05-01T11:13:52.859Z,0
2016-05-01T11:14:53.269Z,0
2016-05-01T11:15:52.912Z,0
2016-05-01T11:16:53.008Z,12
2016-05-01T11:17:52.824Z,28
2016-05-01T11:18:52.998Z,32
2016-05-01T11:19:52.783Z,36
2016-05-01T11:20:53.097Z,40
2016-05-01T11:21:52.538Z,36
2016-05-01T11:22:52.572Z,36
2016-05-01T11:23:52.527Z,40
2016-05-01T11:24:55.468Z,36
2016-05-01T11:25:52.283Z,40
2016-05-01T11:26:52.379Z,40
2016-05-01T11:27:52.335Z,36
2016-05-01T11:28:55.291Z,44
2016-05-01T11:30:01.075Z,24
2016-05-01T11:30:55.187Z,40
2016-05-01T11:31:55.174Z,44
2016-05-01T11:32:55.098Z,44
2016-05-01T11:33:52.054Z,24
2016-05-01T11:34:51.979Z,28
2016-05-01T11:35:53.123Z,28
2016-05-01T11:36:51.718Z,24
2016-05-01T11:37:54.893Z,28
2016-05-01T11:38:57.506Z,28
2016-05-01T11:39:54.773Z,28
2016-05-01T11:40:51.714Z,28
2016-05-01T11:41:57.654Z,24
2016-05-01T11:42:51.672Z,24
2016-05-01T11:43:51.534Z,24
2016-05-01T11:44:51.489Z,24
2016-05-01T11:45:51.477Z,24
2016-05-01T11:46:51.417Z,24
2016-05-01T11:47:51.358Z,24
2016-05-01T11:48:51.344Z,24
2016-05-01T11:49:57.489Z,24
2016-05-01T11:50:54.147Z,24
2016-05-01T11:51:51.540Z,24
2016-05-01T11:52:51.309Z,24
2016-05-01T11:53:53.905Z,24
2016-05-01T11:54:50.877Z,24
2016-05-01T11:55:50.658Z,24
2016-05-01T11:56:50.929Z,24
2016-05-01T11:57:50.554Z,24
2016-05-01T11:58:50.838Z,24
2016-05-01T11:59:50.983Z,24
2016-05-01T12:00:53.705Z,24
2016-05-01T12:01:53.770Z,24
2016-05-01T12:02:50.473Z,20
2016-05-01T12:03:50.570Z,24
2016-05-01T12:04:50.510Z,24
2016-05-01T12:05:53.515Z,24
2016-05-01T12:06:50.281Z,24
2016-05-01T12:07:50.361Z,28
2016-05-01T12:08:50.302Z,28
2016-05-01T12:09:50.118Z,24
2016-05-01T12:10:50.214Z,24
2016-05-01T12:11:50.404Z,24
2016-05-01T12:12:53.112Z,28
2016-05-01T12:13:50.081Z,28
2016-05-01T12:14:59.039Z,28
2016-05-01T12:15:49.977Z,28
2016-05-01T12:16:50.042Z,28
2016-05-01T12:17:52.875Z,28
2016-05-01T12:18:49.531Z,24
2016-05-01T12:19:52.991Z,24
2016-05-01T12:20:49.834Z,24
2016-05-01T12:21:49.540Z,24
2016-05-01T12:22:49.653Z,24
2016-05-01T12:23:49.795Z,24
2016-05-01T12:24:49.751Z,28
2016-05-01T12:25:49.379Z,28
2016-05-01T12:26:49.428Z,24
2016-05-01T12:27:49.260Z,28
2016-05-01T12:28:49.371Z,28
2016-05-01T12:29:49.296Z,24
2016-05-01T12:30:52.114Z,28
2016-05-01T12:31:49.208Z,28
2016-05-01T12:32:52.148Z,28
2016-05-01T12:33:51.932Z,28
2016-05-01T12:34:49.560Z,28
2016-05-01T12:35:54.877Z,28
2016-05-01T12:36:52.002Z,28
2016-05-01T12:37:48.786Z,32
2016-05-01T12:38:48.882Z,32
2016-05-01T12:39:48.713Z,28
2016-05-01T12:40:48.748Z,28
2016-05-01T12:41:48.734Z,28
2016-05-01T12:42:48.925Z,28
2016-05-01T12:43:48.615Z,28
2016-05-01T12:44:51.555Z,28
2016-05-01T12:45:48.542Z,28
2016-05-01T12:46:48.560Z,32
2016-05-01T12:47:48.281Z,28
2016-05-01T12:48:48.582Z,28
2016-05-01T12:49:48.319Z,28
2016-05-01T12:50:48.306Z,28
2016-05-01T12:51:47.917Z,28
2016-05-01T12:52:48.280Z,28
2016-05-01T12:53:48.141Z,28
2016-05-01T12:54:48.300Z,32
2016-05-01T12:55:47.897Z,32
2016-05-01T12:56:47.978Z,32
2016-05-01T12:57:47.778Z,32
2016-05-01T12:58:47.889Z,28
2016-05-01T12:59:47.829Z,28
2016-05-01T13:00:50.801Z,32
2016-05-01T13:01:47.757Z,32
2016-05-01T13:02:47.885Z,32
2016-05-01T13:03:47.638Z,32
2016-05-01T13:04:47.796Z,32
2016-05-01T13:05:51.440Z,32
2016-05-01T13:06:50.505Z,32
2016-05-01T13:07:53.273Z,32
2016-05-01T13:08:50.245Z,32
2016-05-01T13:09:47.372Z,32
2016-05-01T13:10:47.453Z,28
2016-05-01T13:11:47.456Z,32
2016-05-01T13:12:47.209Z,32
2016-05-01T13:13:50.148Z,32
2016-05-01T13:14:47.120Z,32
2016-05-01T13:15:50.075Z,32
2016-05-01T13:16:47.031Z,32
2016-05-01T13:17:46.800Z,32
2016-05-01T13:18:46.912Z,32
2016-05-01T13:19:49.727Z,32
2016-05-01T13:20:47.386Z,32
2016-05-01T13:21:46.623Z,32
2016-05-01T13:22:46.610Z,32
2016-05-01T13:23:46.519Z,32
2016-05-01T13:24:49.678Z,32
2016-05-01T13:25:46.619Z,32
2016-05-01T13:26:49.543Z,32
2016-05-01T13:27:46.483Z,36
2016-05-01T13:28:46.469Z,32
2016-05-01T13:29:46.222Z,32
2016-05-01T13:30:46.319Z,32
2016-05-01T13:31:49.103Z,32
2016-05-01T13:32:46.560Z,36
2016-05-01T13:33:46.171Z,36
2016-05-01T13:34:46.127Z,32
2016-05-01T13:35:45.974Z,36
2016-05-01T13:36:46.055Z,28
2016-05-01T13:37:46.056Z,36
2016-05-01T13:38:46.154Z,32
2016-05-01T13:39:46.093Z,32
2016-05-01T13:40:48.846Z,32
2016-05-01T13:41:46.051Z,28
2016-05-01T13:42:45.758Z,24
2016-05-01T13:43:45.745Z,36
2016-05-01T13:44:45.669Z,36
2016-05-01T13:45:45.922Z,24
2016-05-01T13:46:45.753Z,24
2016-05-01T13:47:45.506Z,28
2016-05-01T13:48:45.290Z,28
2016-05-01T13:49:45.371Z,24
2016-05-01T13:50:45.436Z,24
2016-05-01T13:51:48.157Z,24
2016-05-01T13:52:45.253Z,24
2016-05-01T13:53:45.381Z,28
2016-05-01T13:54:45.165Z,20
2016-05-01T13:55:47.949Z,20
2016-05-01T13:56:45.249Z,20
2016-05-01T13:57:45.204Z,28
2016-05-01T13:58:45.160Z,24
2016-05-01T13:59:44.944Z,24
2016-05-01T14:00:45.056Z,16
2016-05-01T14:01:47.825Z,20
2016-05-01T14:02:47.796Z,20
2016-05-01T14:03:47.689Z,28
2016-05-01T14:04:44.677Z,24
2016-05-01T14:05:45.507Z,16
2016-05-01T14:06:44.557Z,28
2016-05-01T14:07:47.747Z,28
2016-05-01T14:08:44.499Z,28
2016-05-01T14:09:44.705Z,24
2016-05-01T14:10:44.239Z,28
2016-05-01T14:11:47.321Z,24
2016-05-01T14:12:44.510Z,28
2016-05-01T14:13:44.294Z,28
2016-05-01T14:14:44.047Z,28
2016-05-01T14:15:44.378Z,28
2016-05-01T14:16:44.068Z,28
2016-05-01T14:17:44.056Z,28
2016-05-01T14:18:44.214Z,28
2016-05-01T14:19:43.936Z,28
2016-05-01T14:20:44.345Z,20
2016-05-01T14:21:43.847Z,28
2016-05-01T14:22:43.678Z,28
2016-05-01T14:23:46.853Z,28
2016-05-01T14:24:43.745Z,28
2016-05-01T14:25:43.686Z,28
2016-05-01T14:26:44.017Z,28
2016-05-01T14:27:43.394Z,28
2016-05-01T14:28:46.522Z,28
2016-05-01T14:29:43.446Z,28
2016-05-01T14:30:43.402Z,28
2016-05-01T14:31:43.358Z,28
2016-05-01T14:32:43.533Z,28
2016-05-01T14:33:43.254Z,28
2016-05-01T14:34:43.054Z,28
2016-05-01T14:35:43.041Z,28
2016-05-01T14:36:43.121Z,28
2016-05-01T14:37:46.047Z,28
2016-05-01T14:38:43.018Z,28